Time;durP1;ratioP1;P1;durP2;ratioP2;P2;SDS_P1;SDS_P2;PMS_P1;PMS_P2;Temp;Humidity;BMP_temperature;BMP_pressure;BME280_temperature;BME280_humidity;BME280_pressure;Samples;Min_cycle;Max_cycle;Signal;HPM_P1;HPM_P2
2022/03/22 00:02:25;;;;;;;53.00;21.70;;;;;;;4.74;45.02;102349.16;4154283;28;20227;-70
2022/03/22 00:04:52;;;;;;;45.37;20.00;;;;;;;4.71;45.22;102354.53;4148957;28;20308;-67
2022/03/22 00:07:19;;;;;;;47.20;20.73;;;;;;;4.71;44.69;102359.81;4153886;28;21663;-67
2022/03/22 00:09:45;;;;;;;52.43;21.30;;;;;;;4.49;45.99;102350.06;4154961;28;20230;-68
2022/03/22 00:12:12;;;;;;;50.27;20.93;;;;;;;4.26;46.59;102356.25;4153087;28;20238;-69
2022/03/22 00:14:39;;;;;;;46.73;19.93;;;;;;;4.29;46.39;102356.13;4195971;28;20234;-67
2022/03/22 00:17:26;;;;;;;47.27;20.43;;;;;;;4.19;46.93;102350.31;4152180;28;22232;-68
2022/03/22 00:19:56;;;;;;;56.97;21.50;;;;;;;3.96;48.34;102350.31;4152131;28;20291;-67
2022/03/22 00:22:24;;;;;;;44.57;20.07;;;;;;;4.03;48.00;102346.53;4159694;28;20234;-69
2022/03/22 00:24:51;;;;;;;54.07;20.93;;;;;;;3.93;48.48;102342.50;4154475;28;20235;-70
2022/03/22 00:27:17;;;;;;;49.73;20.30;;;;;;;4.00;48.22;102351.91;4225613;28;20239;-67
2022/03/22 00:29:44;;;;;;;44.20;19.73;;;;;;;3.99;48.47;102345.78;4240835;28;20354;-69
2022/03/22 00:32:11;;;;;;;49.93;20.00;;;;;;;3.95;48.83;102344.16;4239639;28;20234;-69
2022/03/22 00:34:44;;;;;;;51.07;20.97;;;;;;;3.76;49.34;102338.69;4242011;28;20313;-67
2022/03/22 00:37:17;;;;;;;55.13;19.77;;;;;;;3.82;48.84;102348.16;4246454;28;20618;-69
2022/03/22 00:39:45;;;;;;;46.50;19.80;;;;;;;3.89;48.73;102344.41;4239939;28;20248;-69
2022/03/22 00:42:12;;;;;;;43.97;19.17;;;;;;;3.91;48.64;102341.69;4242931;28;20230;-67
2022/03/22 00:44:39;;;;;;;45.53;19.37;;;;;;;3.88;48.95;102341.81;4238855;28;20230;-65
2022/03/22 00:47:09;;;;;;;52.00;20.60;;;;;;;3.78;49.10;102341.28;4220128;28;20360;-67
2022/03/22 00:49:36;;;;;;;53.73;22.17;;;;;;;3.64;50.01;102338.28;4217861;28;20238;-67
2022/03/22 00:52:04;;;;;;;63.20;21.53;;;;;;;3.55;49.74;102342.06;4239497;28;20332;-69
2022/03/22 00:54:32;;;;;;;50.63;20.83;;;;;;;3.50;50.80;102342.22;4195467;28;21413;-67
2022/03/22 00:56:59;;;;;;;57.60;21.77;;;;;;;3.50;50.77;102339.59;4239361;28;20226;-67
2022/03/22 01:02:11;;;;;;;51.63;21.77;;;;;;;3.78;50.13;102331.59;4217915;28;20280;-66
2022/03/22 01:04:38;;;;;;;54.27;23.07;;;;;;;3.86;49.72;102327.81;4257494;28;20256;-67
2022/03/22 01:07:05;;;;;;;59.73;22.77;;;;;;;3.92;49.75;102338.16;4242735;28;20242;-70
2022/03/22 01:09:32;;;;;;;68.50;24.13;;;;;;;3.83;50.78;102326.16;4244012;28;22841;-69
2022/03/22 01:11:59;;;;;;;66.27;24.67;;;;;;;3.74;51.53;102335.25;4229272;28;22405;-67
2022/03/22 01:14:27;;;;;;;62.97;23.77;;;;;;;3.82;50.82;102327.09;4230271;28;22368;-67
2022/03/22 01:16:55;;;;;;;52.63;20.73;;;;;;;3.77;50.69;102326.41;4170883;28;21736;-68
2022/03/22 01:19:27;;;;;;;47.83;20.77;;;;;;;3.70;50.71;102327.50;4157528;28;20239;-66
2022/03/22 01:21:54;;;;;;;44.77;19.03;;;;;;;3.59;50.88;102331.38;4156023;28;20245;-66
2022/03/22 01:24:21;;;;;;;47.87;19.90;;;;;;;3.59;51.01;102336.66;4157198;28;20247;-67
2022/03/22 01:26:48;;;;;;;46.37;19.50;;;;;;;3.56;51.20;102330.66;4157327;28;21671;-66
2022/03/22 01:29:14;;;;;;;49.93;21.50;;;;;;;3.54;51.48;102332.47;4154245;28;20308;-67
2022/03/22 01:31:41;;;;;;;60.50;20.93;;;;;;;3.46;51.74;102323.97;4157852;28;20234;-66
2022/03/22 01:34:08;;;;;;;56.30;22.37;;;;;;;3.43;52.63;102326.72;4241498;28;20293;-68
2022/03/22 01:36:34;;;;;;;62.57;23.13;;;;;;;3.29;53.37;102335.06;4242230;28;21494;-67
2022/03/22 01:39:01;;;;;;;56.17;22.73;;;;;;;3.34;53.07;102327.88;4226382;28;20238;-67
2022/03/22 01:41:28;;;;;;;62.50;23.57;;;;;;;3.40;52.56;102326.81;4217357;28;20242;-67
2022/03/22 01:43:57;;;;;;;55.37;22.53;;;;;;;3.39;52.50;102328.56;4208099;28;20342;-69
2022/03/22 01:46:24;;;;;;;62.07;23.40;;;;;;;3.29;52.97;102327.16;4206042;28;20233;-69
2022/03/22 01:48:51;;;;;;;54.60;22.30;;;;;;;3.35;52.46;102333.09;4215357;28;20329;-68
2022/03/22 01:51:21;;;;;;;49.97;20.67;;;;;;;3.35;52.55;102332.25;4215297;28;24372;-67
2022/03/22 01:53:48;;;;;;;71.93;25.50;;;;;;;3.29;53.77;102328.03;4202277;28;20234;-66
2022/03/22 01:56:15;;;;;;;62.90;24.77;;;;;;;3.28;54.22;102330.72;4209891;28;25160;-67
2022/03/22 01:58:41;;;;;;;65.63;25.77;;;;;;;3.14;55.14;102325.91;4225482;28;20309;-68
2022/03/22 02:06:41;;;;;;;60.70;24.83;;;;;;;3.09;55.10;102333.06;4216322;28;20251;-68
2022/03/22 02:09:08;;;;;;;67.90;26.43;;;;;;;3.02;55.54;102335.06;4193686;28;20232;-68
2022/03/22 02:11:35;;;;;;;76.20;26.80;;;;;;;3.08;55.31;102329.59;4226452;28;20456;-67
2022/03/22 02:14:01;;;;;;;64.87;25.63;;;;;;;3.08;55.03;102323.47;4221775;28;22320;-67
2022/03/22 02:16:31;;;;;;;67.00;26.13;;;;;;;2.89;56.23;102324.06;4214005;28;21212;-65
2022/03/22 02:18:58;;;;;;;67.10;25.63;;;;;;;2.77;56.81;102329.72;4217284;28;20250;-68
2022/03/22 02:21:25;;;;;;;67.00;25.00;;;;;;;2.71;56.90;102327.28;4174566;28;20235;-66
2022/03/22 02:23:55;;;;;;;56.73;23.13;;;;;;;2.71;56.54;102325.50;4217256;28;26319;-67
2022/03/22 02:26:23;;;;;;;58.73;23.93;;;;;;;2.68;56.31;102322.13;4225172;28;20389;-68
2022/03/22 02:28:53;;;;;;;57.10;24.03;;;;;;;2.75;56.51;102326.28;4214888;28;20238;-66
2022/03/22 02:31:23;;;;;;;80.77;30.50;;;;;;;2.79;57.22;102332.31;4162947;28;20226;-67
2022/03/22 02:33:50;;;;;;;80.67;32.43;;;;;;;2.80;57.82;102324.34;4220281;28;20231;-68
2022/03/22 02:36:17;;;;;;;71.90;29.00;;;;;;;2.77;57.55;102334.97;4200344;28;20235;-67
2022/03/22 02:38:44;;;;;;;80.47;32.13;;;;;;;2.81;58.09;102336.59;4233814;28;20315;-68
2022/03/22 02:41:33;;;;;;;81.37;30.70;;;;;;;2.82;57.70;102330.44;4232993;28;20235;-68
2022/03/22 02:44:00;;;;;;;84.57;31.20;;;;;;;2.83;57.70;102326.88;4236698;28;20367;-68
2022/03/22 02:46:26;;;;;;;84.97;33.37;;;;;;;2.82;58.60;102329.56;4225254;28;20233;-68
2022/03/22 02:48:54;;;;;;;84.23;31.37;;;;;;;2.75;58.86;102326.28;4254627;28;20318;-67
2022/03/22 02:51:21;;;;;;;83.70;30.93;;;;;;;2.68;58.92;102330.00;4226568;28;20236;-66
2022/03/22 02:53:47;;;;;;;81.83;31.70;;;;;;;2.69;58.83;102329.97;4237909;28;26449;-68
2022/03/22 02:56:14;;;;;;;73.30;28.77;;;;;;;2.68;58.63;102333.47;4235559;28;21195;-67
2022/03/22 02:58:40;;;;;;;72.63;27.87;;;;;;;2.66;58.30;102334.44;4241936;28;20237;-66
2022/03/22 03:01:07;;;;;;;80.70;30.27;;;;;;;2.62;58.35;102338.06;4238667;28;20266;-67
2022/03/22 03:03:34;;;;;;;76.97;28.00;;;;;;;2.42;59.87;102338.69;4241930;28;22396;-67
2022/03/22 03:06:00;;;;;;;68.87;25.70;;;;;;;2.47;58.82;102337.63;4234145;28;22241;-66
2022/03/22 03:08:27;;;;;;;58.87;24.47;;;;;;;2.53;58.20;102341.84;4229320;28;20218;-68
2022/03/22 03:10:54;;;;;;;67.87;25.30;;;;;;;2.38;58.27;102345.78;4239264;28;20393;-67
2022/03/22 03:13:21;;;;;;;57.90;25.23;;;;;;;2.28;58.82;102349.59;4240140;28;20230;-68
2022/03/22 03:15:50;;;;;;;69.73;26.13;;;;;;;2.28;58.41;102346.97;4242268;28;20253;-67
2022/03/22 03:18:18;;;;;;;74.70;29.53;;;;;;;2.16;59.37;102345.56;4248569;28;23759;-68
2022/03/22 03:20:45;;;;;;;89.50;32.57;;;;;;;2.07;60.03;102346.66;4228532;28;21257;-66
2022/03/22 03:23:12;;;;;;;85.13;33.50;;;;;;;1.90;61.99;102352.38;4237954;28;20238;-66
2022/03/22 03:25:39;;;;;;;76.57;31.67;;;;;;;1.92;62.13;102348.84;4259141;28;20400;-66
2022/03/22 03:28:06;;;;;;;87.47;30.07;;;;;;;2.07;61.44;102351.91;4243325;28;21818;-66
2022/03/22 03:30:32;;;;;;;89.00;32.50;;;;;;;2.12;61.39;102349.16;4248463;28;20414;-66
2022/03/22 03:32:59;;;;;;;83.03;32.70;;;;;;;2.04;62.33;102348.53;4201202;28;24383;-66
2022/03/22 03:35:26;;;;;;;83.10;31.53;;;;;;;2.08;61.88;102345.78;4219928;28;21485;-67
2022/03/22 03:37:52;;;;;;;81.63;32.67;;;;;;;2.11;61.46;102350.94;4239528;28;21319;-65
2022/03/22 03:40:19;;;;;;;87.13;33.43;;;;;;;1.99;62.61;102356.53;4235201;28;20294;-67
2022/03/22 03:42:46;;;;;;;78.10;32.43;;;;;;;1.97;62.64;102347.84;4236996;28;20393;-65
2022/03/22 03:47:58;;;;;;;103.57;34.30;;;;;;;1.90;63.35;102348.91;4242158;28;20222;-68
2022/03/22 03:50:26;;;;;;;82.60;33.83;;;;;;;1.90;63.38;102351.53;4250496;28;20231;-67
2022/03/22 03:52:53;;;;;;;89.87;36.30;;;;;;;1.90;63.57;102357.63;4237271;28;20237;-66
2022/03/22 03:55:19;;;;;;;88.10;32.83;;;;;;;2.08;62.95;102355.41;4247179;28;20297;-66
2022/03/22 03:57:46;;;;;;;76.13;29.53;;;;;;;2.20;61.78;102360.31;4200940;28;21418;-68
2022/03/22 04:00:13;;;;;;;76.77;30.60;;;;;;;2.13;61.43;102363.16;4241453;28;20240;-67
2022/03/22 04:02:42;;;;;;;72.13;28.13;;;;;;;2.12;61.06;102367.53;4236530;28;20245;-68
2022/03/22 04:05:10;;;;;;;66.83;27.43;;;;;;;2.09;60.92;102363.25;4244447;28;20227;-67
2022/03/22 04:07:36;;;;;;;71.10;29.07;;;;;;;2.08;61.19;102361.53;4180954;28;22715;-66
2022/03/22 04:10:03;;;;;;;75.30;29.63;;;;;;;1.99;61.19;102363.53;4230336;28;20235;-69
2022/03/22 04:12:31;;;;;;;74.40;29.60;;;;;;;2.02;61.60;102360.84;4243786;28;23017;-66
2022/03/22 04:14:57;;;;;;;75.73;29.07;;;;;;;2.04;61.58;102370.41;4235996;28;20315;-66
2022/03/22 04:17:24;;;;;;;75.00;29.33;;;;;;;1.99;61.56;102364.41;4238870;28;20338;-67
2022/03/22 04:19:50;;;;;;;78.23;32.23;;;;;;;1.98;61.35;102367.06;4244513;28;20257;-66
2022/03/22 04:22:18;;;;;;;84.40;33.97;;;;;;;1.98;61.47;102365.28;4237573;28;20226;-68
2022/03/22 04:24:45;;;;;;;83.47;33.87;;;;;;;1.97;61.78;102368.84;4255555;28;21279;-67
2022/03/22 04:32:41;;;;;;;86.87;31.17;;;;;;;1.97;62.15;102368.00;4240175;28;20282;-66
2022/03/22 04:35:10;;;;;;;76.53;31.27;;;;;;;1.93;62.07;102366.34;4239113;28;22928;-65
2022/03/22 04:37:37;;;;;;;84.63;32.50;;;;;;;1.71;63.63;102368.66;4237250;28;20336;-66
2022/03/22 04:40:05;;;;;;;92.30;33.63;;;;;;;1.73;64.01;102369.47;4242357;28;21597;-66
2022/03/22 04:42:32;;;;;;;84.73;33.17;;;;;;;1.81;64.48;102375.41;4231228;28;20248;-66
2022/03/22 04:44:58;;;;;;;97.37;35.93;;;;;;;1.87;63.84;102368.22;4248690;28;20340;-67
2022/03/22 04:47:26;;;;;;;94.10;36.03;;;;;;;2.00;63.47;102368.75;4234103;28;20242;-66
2022/03/22 04:49:53;;;;;;;88.27;34.43;;;;;;;1.97;63.91;102368.84;4223936;28;20418;-65
2022/03/22 04:57:51;;;;;;;106.50;38.23;;;;;;;2.05;63.36;102366.84;4250687;28;20219;-68
2022/03/22 05:00:17;;;;;;;92.10;36.33;;;;;;;2.10;62.88;102377.22;4196470;28;20234;-69
2022/03/22 05:02:44;;;;;;;87.70;34.03;;;;;;;2.25;62.22;102379.44;4262069;28;20749;-66
2022/03/22 05:05:10;;;;;;;79.30;32.00;;;;;;;2.25;62.54;102378.59;4267487;28;20502;-67
2022/03/22 05:07:38;;;;;;;93.87;35.20;;;;;;;2.29;62.38;102385.44;4235877;28;20242;-69
2022/03/22 05:10:04;;;;;;;91.23;35.90;;;;;;;2.23;62.58;102376.00;4237529;28;20238;-69
2022/03/22 05:12:31;;;;;;;100.37;37.80;;;;;;;2.29;62.34;102381.09;4265851;28;20233;-67
2022/03/22 05:14:57;;;;;;;104.73;41.97;;;;;;;2.24;62.72;102380.31;4202578;28;22174;-69
2022/03/22 05:17:24;;;;;;;113.93;40.03;;;;;;;2.25;63.63;102383.84;4241829;28;20234;-67
2022/03/22 05:19:51;;;;;;;101.20;39.97;;;;;;;2.29;63.95;102382.81;4259806;28;20655;-67
2022/03/22 05:22:18;;;;;;;106.73;39.37;;;;;;;2.46;63.15;102385.84;4256586;28;20413;-66
2022/03/22 05:24:45;;;;;;;97.80;38.23;;;;;;;2.63;62.16;102381.84;4266011;28;20313;-67
2022/03/22 05:27:14;;;;;;;101.07;39.77;;;;;;;2.67;62.49;102378.22;4252181;28;20246;-68
2022/03/22 05:29:40;;;;;;;112.70;40.60;;;;;;;2.71;62.04;102377.22;4247892;28;21787;-66
2022/03/22 05:32:07;;;;;;;95.87;38.93;;;;;;;2.74;62.66;102382.41;4251738;28;21493;-65
2022/03/22 05:34:34;;;;;;;103.67;41.07;;;;;;;2.77;62.44;102384.06;4216276;28;20493;-67
2022/03/22 05:37:01;;;;;;;104.47;41.40;;;;;;;2.84;62.29;102382.97;4227303;28;20317;-68
2022/03/22 05:39:30;;;;;;;109.00;42.07;;;;;;;2.87;62.39;102386.34;4239176;28;20239;-68
2022/03/22 05:41:57;;;;;;;118.40;42.83;;;;;;;2.98;61.90;102391.28;4243675;28;20408;-68
2022/03/22 05:44:24;;;;;;;105.77;39.57;;;;;;;3.08;61.54;102390.09;4179090;28;20238;-68
2022/03/22 05:46:51;;;;;;;101.33;38.87;;;;;;;3.12;61.54;102393.50;4243784;28;25585;-67
2022/03/22 05:49:17;;;;;;;108.53;38.70;;;;;;;3.24;61.08;102392.25;4242854;28;20230;-66
2022/03/22 05:51:44;;;;;;;110.63;39.80;;;;;;;3.27;61.33;102385.09;4248721;28;20248;-66
2022/03/22 05:54:10;;;;;;;102.87;39.17;;;;;;;3.44;60.77;102391.56;4238133;28;20300;-67
2022/03/22 05:56:37;;;;;;;102.57;38.60;;;;;;;3.58;60.33;102397.22;4237907;28;20435;-68
2022/03/22 05:59:04;;;;;;;99.17;37.17;;;;;;;3.71;59.68;102402.97;4243248;28;22574;-69
2022/03/22 06:01:30;;;;;;;97.93;38.63;;;;;;;3.89;59.10;102396.22;4230011;28;21500;-68
2022/03/22 06:03:58;;;;;;;106.17;39.93;;;;;;;3.95;59.13;102403.88;4162357;28;20397;-69
2022/03/22 06:06:24;;;;;;;107.47;42.30;;;;;;;4.05;59.37;102394.75;4186331;28;21152;-68
2022/03/22 06:08:51;;;;;;;103.60;39.83;;;;;;;4.17;59.03;102386.41;4246765;28;20226;-69
2022/03/22 06:11:18;;;;;;;106.90;39.33;;;;;;;4.28;58.58;102393.91;4220659;28;20295;-69
2022/03/22 06:13:45;;;;;;;86.30;33.90;;;;;;;4.52;57.50;102394.78;4243232;28;20230;-68
2022/03/22 06:16:12;;;;;;;99.30;39.37;;;;;;;4.53;57.42;102399.13;4242840;28;23475;-69
2022/03/22 06:18:39;;;;;;;98.27;37.00;;;;;;;4.64;57.02;102393.47;4194511;28;20313;-69
2022/03/22 06:21:05;;;;;;;88.13;34.33;;;;;;;4.81;56.30;102388.41;4243786;28;20302;-68
2022/03/22 06:23:32;;;;;;;81.77;34.13;;;;;;;4.99;55.85;102394.75;4231684;28;22252;-67
2022/03/22 06:26:01;;;;;;;96.53;33.50;;;;;;;5.14;54.64;102395.03;4241953;28;20246;-69
2022/03/22 06:28:28;;;;;;;93.20;32.60;;;;;;;5.22;54.65;102392.94;4205621;28;20304;-69
2022/03/22 06:30:55;;;;;;;89.77;29.97;;;;;;;5.39;53.92;102393.13;4251897;28;20327;-69
2022/03/22 06:33:24;;;;;;;77.10;28.47;;;;;;;5.53;53.57;102399.63;4223328;28;23397;-69
2022/03/22 06:35:50;;;;;;;92.10;30.40;;;;;;;5.55;53.36;102395.13;4245950;28;20825;-70
2022/03/22 06:38:18;;;;;;;74.97;29.63;;;;;;;5.64;52.45;102394.72;4230236;28;21702;-68
2022/03/22 06:40:45;;;;;;;84.57;28.77;;;;;;;5.69;52.67;102398.91;4239231;28;21583;-66
2022/03/22 06:43:14;;;;;;;88.33;30.30;;;;;;;5.88;52.11;102396.34;4224508;28;20239;-66
2022/03/22 06:45:41;;;;;;;70.40;29.63;;;;;;;5.97;52.11;102404.81;4220085;28;20250;-67
2022/03/22 06:48:08;;;;;;;80.20;30.90;;;;;;;6.11;51.55;102403.31;4210130;28;20358;-67
2022/03/22 06:50:36;;;;;;;83.73;29.60;;;;;;;6.34;50.87;102411.97;4226099;28;20238;-64
2022/03/22 06:53:06;;;;;;;90.63;31.10;;;;;;;6.42;50.34;102409.00;4231143;28;20243;-65
2022/03/22 06:55:33;;;;;;;95.03;31.40;;;;;;;6.62;49.77;102401.00;4222777;28;20270;-63
2022/03/22 06:58:00;;;;;;;84.87;29.13;;;;;;;6.76;49.18;102409.16;4225888;28;25736;-66
2022/03/22 07:00:31;;;;;;;66.67;27.33;;;;;;;7.00;48.75;102411.59;4222488;28;20502;-65
2022/03/22 07:03:00;;;;;;;77.17;27.73;;;;;;;7.23;47.89;102417.56;4232269;28;20236;-67
2022/03/22 07:05:28;;;;;;;73.87;28.47;;;;;;;7.36;47.57;102416.03;4211603;28;21630;-68
2022/03/22 07:07:58;;;;;;;87.07;28.23;;;;;;;7.52;46.94;102417.00;4225909;28;20228;-66
2022/03/22 07:10:25;;;;;;;87.63;29.33;;;;;;;7.53;46.33;102417.84;4223268;28;20233;-68
2022/03/22 07:12:54;;;;;;;73.40;26.93;;;;;;;7.69;46.16;102415.28;4218558;28;20230;-68
2022/03/22 07:15:23;;;;;;;80.00;28.40;;;;;;;7.87;46.22;102417.00;4230163;28;20328;-68
2022/03/22 07:17:52;;;;;;;66.27;27.03;;;;;;;7.92;46.15;102414.13;4225875;28;21624;-68
2022/03/22 07:20:20;;;;;;;81.87;28.60;;;;;;;8.01;45.23;102411.00;4258102;28;20422;-69
2022/03/22 07:22:49;;;;;;;68.57;27.10;;;;;;;8.18;44.36;102415.41;4199361;28;25847;-76
2022/03/22 07:25:17;;;;;;;68.10;27.53;;;;;;;8.81;43.55;102412.91;4229109;28;20231;-68
2022/03/22 07:27:44;;;;;;;65.03;25.63;;;;;;;9.56;40.48;102426.41;4237931;28;20234;-72
2022/03/22 07:30:12;;;;;;;64.20;26.70;;;;;;;10.81;37.96;102426.84;4231762;28;20394;-70
2022/03/22 07:32:39;;;;;;;71.67;26.07;;;;;;;13.90;32.48;102436.38;4235377;28;25176;-68
2022/03/22 07:35:07;;;;;;;71.10;26.67;;;;;;;17.12;27.43;102455.41;4247772;28;22213;-69
2022/03/22 07:37:34;;;;;;;61.47;27.00;;;;;;;20.10;22.18;102470.75;4246138;28;20554;-67
2022/03/22 07:40:03;;;;;;;76.23;27.80;;;;;;;22.33;19.05;102480.19;4196332;28;20235;-70
2022/03/22 07:42:34;;;;;;;68.03;27.07;;;;;;;23.25;17.41;102474.28;4279355;28;20401;-77
2022/03/22 07:45:04;;;;;;;63.50;26.87;;;;;;;23.75;17.11;102474.78;4233808;28;22158;-66
2022/03/22 07:47:33;;;;;;;51.47;25.40;;;;;;;24.97;15.69;102482.69;4249088;28;22641;-72
2022/03/22 07:55:32;;;;;;;58.07;26.00;;;;;;;25.31;14.57;102473.91;4234574;28;20229;-71
2022/03/22 07:57:59;;;;;;;64.10;27.03;;;;;;;23.57;15.86;102470.47;4238012;28;21759;-71
2022/03/22 08:00:26;;;;;;;55.67;25.73;;;;;;;23.82;15.93;102473.03;4238174;28;20304;-75
2022/03/22 08:03:00;;;;;;;60.37;26.23;;;;;;;22.96;16.59;102464.88;4252595;28;20234;-72
2022/03/22 08:05:27;;;;;;;60.93;26.50;;;;;;;24.26;15.86;102480.44;4241818;28;21676;-74
2022/03/22 08:07:55;;;;;;;65.97;27.37;;;;;;;24.75;14.83;102485.38;4232966;28;20232;-69
2022/03/22 08:10:33;;;;;;;59.42;26.15;;;;;;;26.21;13.62;102482.50;4243744;28;20242;-72
2022/03/22 08:13:01;;;;;;;56.67;26.48;;;;;;;26.55;13.09;102487.16;4228173;28;20240;-72
2022/03/22 08:15:32;;;;;;;53.93;25.77;;;;;;;25.95;13.50;102485.88;4240262;28;20311;-68
2022/03/22 08:17:59;;;;;;;61.53;25.17;;;;;;;26.25;13.02;102481.91;4278296;28;21326;-66
2022/03/22 08:20:27;;;;;;;49.47;23.60;;;;;;;25.88;13.47;102475.75;4257570;28;20239;-72
2022/03/22 08:22:59;;;;;;;44.17;24.52;;;;;;;24.79;14.05;102475.75;4255578;28;22451;-71
2022/03/22 08:25:32;;;;;;;49.85;23.35;;;;;;;24.88;13.43;102475.66;4221260;28;20273;-70
2022/03/22 08:28:01;;;;;;;49.27;22.37;;;;;;;24.11;14.00;102477.69;4242760;28;20246;-73
2022/03/22 08:30:30;;;;;;;50.17;22.03;;;;;;;23.06;15.05;102464.72;4224149;28;23054;-70
2022/03/22 08:32:58;;;;;;;43.93;21.63;;;;;;;22.61;15.60;102446.38;4231845;28;20900;-71
2022/03/22 08:35:26;;;;;;;42.20;21.27;;;;;;;22.69;15.67;102455.34;4252089;28;20303;-70
2022/03/22 08:37:54;;;;;;;40.87;20.40;;;;;;;22.94;15.30;102452.50;4233476;28;22060;-74
2022/03/22 08:40:22;;;;;;;42.03;20.53;;;;;;;21.23;16.73;102446.25;4221383;28;20234;-72
2022/03/22 08:42:51;;;;;;;42.87;21.33;;;;;;;19.08;19.37;102434.19;4231463;28;20237;-72
2022/03/22 08:45:20;;;;;;;47.97;22.03;;;;;;;18.75;19.96;102427.50;4253636;28;20223;-74
2022/03/22 08:47:48;;;;;;;44.77;21.93;;;;;;;17.88;21.25;102425.97;4189733;28;21792;-72
2022/03/22 08:50:16;;;;;;;46.47;22.83;;;;;;;17.68;21.44;102417.88;4235507;28;20253;-73
2022/03/22 08:52:43;;;;;;;53.20;24.63;;;;;;;16.32;22.98;102416.72;4257262;28;20223;-74
2022/03/22 08:55:14;;;;;;;48.40;22.63;;;;;;;16.09;23.70;102411.53;4255241;28;22520;-73
2022/03/22 08:57:42;;;;;;;49.97;22.50;;;;;;;15.66;24.47;102406.25;4226319;28;23757;-72
2022/03/22 09:00:11;;;;;;;43.93;20.73;;;;;;;15.78;24.78;102399.84;4286507;28;21245;-74
2022/03/22 09:02:42;;;;;;;50.20;23.43;;;;;;;15.29;25.25;102401.28;4281422;28;24447;-73
2022/03/22 09:08:00;;;;;;;47.47;20.33;;;;;;;15.28;25.17;102397.75;4224558;28;20296;-74
2022/03/22 09:10:29;;;;;;;39.87;18.77;;;;;;;15.19;25.14;102398.50;4294993;28;20265;-71
2022/03/22 09:12:57;;;;;;;48.67;19.40;;;;;;;15.81;25.12;102402.31;4271716;28;20234;-73
2022/03/22 09:15:26;;;;;;;46.60;20.87;;;;;;;16.30;24.33;102395.38;4256007;28;22392;-72
2022/03/22 09:17:56;;;;;;;44.20;19.83;;;;;;;16.61;23.16;102389.97;4281011;28;20234;-77
2022/03/22 09:20:24;;;;;;;38.67;18.97;;;;;;;16.35;23.63;102387.75;4267647;28;20234;-73
2022/03/22 09:22:51;;;;;;;38.60;18.13;;;;;;;15.86;24.55;102389.34;4253760;28;20247;-72
2022/03/22 09:25:21;;;;;;;34.50;18.73;;;;;;;15.66;24.69;102385.63;4227833;28;20270;-76
2022/03/22 09:27:48;;;;;;;40.43;18.77;;;;;;;16.06;24.44;102381.38;4293570;28;20257;-75
2022/03/22 09:30:15;;;;;;;45.33;22.70;;;;;;;16.43;24.33;102379.00;4273604;28;21431;-72
2022/03/22 09:32:44;;;;;;;35.73;16.63;;;;;;;16.25;23.65;102376.13;4282761;28;20232;-74
2022/03/22 09:35:13;;;;;;;36.20;17.93;;;;;;;16.10;23.75;102382.81;4232931;28;20269;-74
2022/03/22 09:37:42;;;;;;;39.10;17.83;;;;;;;16.00;23.98;102375.56;4281240;28;21023;-77
2022/03/22 09:40:10;;;;;;;40.57;18.77;;;;;;;16.24;23.49;102371.72;4204423;28;20245;-75
2022/03/22 09:42:42;;;;;;;40.13;17.50;;;;;;;16.20;23.93;102367.59;4232801;28;22489;-74
2022/03/22 09:45:10;;;;;;;34.60;17.93;;;;;;;15.85;24.00;102373.34;4243122;28;21274;-74
2022/03/22 09:47:37;;;;;;;36.17;17.77;;;;;;;15.70;24.09;102367.44;4250234;28;20531;-73
2022/03/22 09:50:06;;;;;;;44.60;17.80;;;;;;;15.51;23.53;102377.03;4268277;28;20234;-75
2022/03/22 09:52:35;;;;;;;36.83;17.43;;;;;;;15.42;24.07;102367.09;4198522;28;21546;-76
2022/03/22 09:55:03;;;;;;;38.10;18.80;;;;;;;15.31;23.99;102354.59;4256266;28;20909;-71
2022/03/22 09:57:29;;;;;;;39.43;16.87;;;;;;;15.43;23.62;102358.06;4227499;28;21763;-72
2022/03/22 09:59:56;;;;;;;38.27;17.50;;;;;;;15.32;23.91;102356.28;4236574;28;21261;-72
2022/03/22 10:02:32;;;;;;;40.07;18.37;;;;;;;15.32;24.22;102360.81;4255963;28;21597;-70
2022/03/22 10:04:59;;;;;;;40.80;18.70;;;;;;;15.32;24.42;102350.06;4227088;28;20242;-75
2022/03/22 10:07:27;;;;;;;40.57;17.07;;;;;;;15.33;22.58;102351.75;4215912;28;20236;-76
2022/03/22 10:10:02;;;;;;;46.37;17.10;;;;;;;15.03;23.41;102353.38;4278919;28;20226;-74
2022/03/22 10:12:37;;;;;;;34.97;17.17;;;;;;;15.25;23.49;102354.25;4258177;28;20230;-76
2022/03/22 10:15:14;;;;;;;44.33;17.77;;;;;;;15.30;23.71;102354.72;4261711;28;20244;-72
2022/03/22 10:17:43;;;;;;;34.43;17.03;;;;;;;15.10;24.03;102351.88;4269499;28;20314;-74
2022/03/22 10:20:21;;;;;;;37.03;16.33;;;;;;;14.94;23.79;102351.44;4220441;28;20785;-74
2022/03/22 10:22:56;;;;;;;36.83;16.53;;;;;;;14.96;24.10;102344.09;4184642;28;20238;-73
2022/03/22 10:25:23;;;;;;;40.53;17.73;;;;;;;14.69;24.58;102340.03;4221628;28;20719;-73
2022/03/22 10:27:54;;;;;;;36.43;16.23;;;;;;;14.85;23.96;102341.47;4185825;28;20257;-72
2022/03/22 10:30:25;;;;;;;34.50;16.53;;;;;;;14.67;24.39;102342.00;4265327;28;21353;-72
2022/03/22 10:32:51;;;;;;;43.33;17.10;;;;;;;14.84;24.06;102340.59;4242151;28;20226;-71
2022/03/22 10:35:22;;;;;;;29.50;14.80;;;;;;;14.86;22.94;102337.81;4238878;28;20243;-75
2022/03/22 10:38:00;;;;;;;36.20;16.00;;;;;;;14.64;24.28;102339.56;4228352;28;20351;-75
2022/03/22 10:40:31;;;;;;;32.37;15.90;;;;;;;14.52;24.04;102330.66;4255566;28;21617;-74
2022/03/22 10:43:03;;;;;;;34.10;15.40;;;;;;;14.67;24.44;102325.91;4239246;28;20306;-74
2022/03/22 10:45:40;;;;;;;36.07;17.17;;;;;;;14.68;25.13;102324.94;4238317;28;20333;-71
2022/03/22 10:48:07;;;;;;;34.90;16.07;;;;;;;14.60;24.76;102322.03;4247177;28;21206;-71
2022/03/22 10:50:37;;;;;;;37.93;18.70;;;;;;;14.87;25.18;102323.44;4256902;28;20232;-71
2022/03/22 10:53:05;;;;;;;34.33;15.03;;;;;;;15.01;24.24;102315.09;4251141;28;21347;-71
2022/03/22 10:55:32;;;;;;;39.40;15.30;;;;;;;15.23;23.87;102313.31;4235976;28;20231;-69
2022/03/22 10:58:03;;;;;;;30.30;15.20;;;;;;;15.14;24.02;102318.44;4175132;28;20232;-70
2022/03/22 11:00:30;;;;;;;32.23;14.30;;;;;;;15.22;23.01;102312.44;4283231;28;20244;-73
2022/03/22 11:02:57;;;;;;;30.70;15.33;;;;;;;15.39;23.23;102311.88;4234347;28;20227;-73
2022/03/22 11:05:26;;;;;;;31.30;14.63;;;;;;;15.44;23.42;102306.09;4234159;28;21194;-74
2022/03/22 11:07:53;;;;;;;32.73;14.40;;;;;;;15.48;23.12;102309.41;4246557;28;20239;-69
2022/03/22 11:10:28;;;;;;;31.30;14.80;;;;;;;15.27;23.70;102304.03;4253028;28;20232;-75
2022/03/22 11:12:58;;;;;;;27.33;12.33;;;;;;;15.50;21.78;102310.09;4242010;28;20581;-71
2022/03/22 11:15:26;;;;;;;31.73;13.47;;;;;;;15.53;22.07;102305.31;4246597;28;20297;-75
2022/03/22 11:17:54;;;;;;;32.43;14.67;;;;;;;15.83;21.90;102287.59;4242037;28;21253;-73
2022/03/22 11:20:22;;;;;;;30.60;14.20;;;;;;;15.77;22.26;102290.78;4227735;28;20236;-75
2022/03/22 11:22:55;;;;;;;33.83;13.97;;;;;;;15.69;21.66;102288.75;4245682;28;22795;-73
2022/03/22 11:25:36;;;;;;;30.20;13.33;;;;;;;15.85;21.58;102282.94;4232875;28;20239;-75
2022/03/22 11:28:11;;;;;;;31.27;13.47;;;;;;;15.69;21.47;102282.53;4250923;28;20612;-70
2022/03/22 11:30:40;;;;;;;28.87;13.60;;;;;;;15.65;22.00;102276.56;4218215;28;20242;-75
2022/03/22 11:36:00;;;;;;;29.83;13.43;;;;;;;15.89;21.75;102276.28;4238792;28;20295;-74
2022/03/22 11:38:36;;;;;;;29.93;13.00;;;;;;;16.04;21.01;102272.28;4239796;28;20452;-70
2022/03/22 11:43:48;;;;;;;29.47;13.40;;;;;;;16.32;21.32;102269.81;4243782;28;20440;-70
2022/03/22 11:46:15;;;;;;;31.90;15.07;;;;;;;16.40;21.29;102269.97;4258120;28;20231;-70
2022/03/22 11:48:41;;;;;;;35.03;15.10;;;;;;;16.28;21.67;102265.69;4246087;28;20311;-68
2022/03/22 11:51:09;;;;;;;27.47;13.87;;;;;;;16.02;21.57;102260.81;4228256;28;21225;-70
2022/03/22 11:53:45;;;;;;;42.37;14.90;;;;;;;16.18;22.08;102256.78;4235697;28;21782;-70
2022/03/22 11:56:12;;;;;;;33.83;15.70;;;;;;;16.25;21.31;102252.56;4273148;28;21062;-69